Time;durP1;ratioP1;P1;durP2;ratioP2;P2;SDS_P1;SDS_P2;PMS_P1;PMS_P2;Temp;Humidity;BMP_temperature;BMP_pressure;BME280_temperature;BME280_humidity;BME280_pressure;Samples;Min_cycle;Max_cycle;Signal;HPM_P1;HPM_P2
2022/02/01 00:02:41;;;;;;;2.54;1.78;;;;;;;2.06;65.46;99791.45;461376;113;922555;-70
2022/02/01 00:03:57;;;;;;;1.79;1.64;;;;;;;2.05;65.38;99795.16;446501;116;923005;-69
2022/02/01 00:05:10;;;;;;;2.45;1.48;;;;;;;2.03;65.22;99794.52;457954;114;922562;-69
2022/02/01 00:06:32;;;;;;;2.38;1.92;;;;;;;2.02;65.16;99792.00;456395;113;922767;-69
2022/02/01 00:07:41;;;;;;;2.71;1.93;;;;;;;2.02;65.24;99789.30;456681;113;922631;-68
2022/02/01 00:09:58;;;;;;;;;;;;;;;2.01;65.09;99793.01;458278;114;922207;-68
2022/02/01 00:13:24;;;;;;;2.38;1.68;;;;;;;1.96;65.09;99801.61;457098;114;922698;-69
2022/02/01 00:14:28;;;;;;;1.69;1.44;;;;;;;1.93;65.05;99807.33;455210;114;922678;-68
2022/02/01 00:17:09;;;;;;;3.06;1.71;;;;;;;1.90;65.10;99796.11;456407;114;922596;-69
2022/02/01 00:20:19;;;;;;;2.92;1.67;;;;;;;1.90;65.22;99804.17;457709;114;922619;-70
2022/02/01 00:36:36;;;;;;;2.16;1.69;;;;;;;1.97;65.21;99797.91;457231;114;922582;-69
2022/02/01 00:37:19;;;;;;;2.01;1.28;;;;;;;1.99;65.24;99792.34;452714;114;922683;-68
2022/02/01 00:38:26;;;;;;;1.87;1.36;;;;;;;2.01;65.18;99793.01;456857;113;922545;-69
2022/02/01 00:39:41;;;;;;;2.83;1.58;;;;;;;2.02;65.12;99792.84;456378;114;923413;-70
2022/02/01 00:40:38;;;;;;;2.92;1.62;;;;;;;2.02;65.03;99786.62;456454;114;922615;-69
2022/02/01 00:41:51;;;;;;;1.84;1.60;;;;;;;1.99;64.94;99785.11;456819;114;930393;-71
2022/02/01 00:42:49;;;;;;;5.27;1.59;;;;;;;1.96;64.94;99785.48;457843;113;922639;-69
2022/02/01 00:43:52;;;;;;;1.99;1.37;;;;;;;1.94;65.03;99803.63;457700;114;923060;-69
2022/02/01 00:44:56;;;;;;;2.11;1.71;;;;;;;1.94;65.03;99790.19;457739;114;922583;-69
2022/02/01 00:46:00;;;;;;;1.83;1.47;;;;;;;1.95;65.05;99793.72;456904;113;922796;-70
2022/02/01 00:47:04;;;;;;;2.05;1.65;;;;;;;1.94;65.07;99787.50;456087;113;922538;-69
2022/02/01 00:48:07;;;;;;;2.82;1.81;;;;;;;1.95;65.07;99791.88;457046;114;923011;-69
2022/02/01 00:49:10;;;;;;;3.01;1.94;;;;;;;1.97;65.11;99797.08;457392;114;922808;-69
2022/02/01 00:50:14;;;;;;;1.81;1.46;;;;;;;2.00;65.13;99804.77;457451;114;923086;-70
2022/02/01 00:51:18;;;;;;;2.35;1.69;;;;;;;2.03;65.08;99805.27;457782;113;922832;-69
2022/02/01 00:52:22;;;;;;;2.26;1.75;;;;;;;2.06;65.03;99809.44;457008;114;922608;-69
2022/02/01 00:53:31;;;;;;;2.45;1.56;;;;;;;2.09;64.97;99806.41;457370;114;922910;-70
2022/02/01 00:54:33;;;;;;;2.41;1.97;;;;;;;2.12;64.97;99805.19;456237;113;922716;-69
2022/02/01 00:55:37;;;;;;;2.42;1.42;;;;;;;2.15;64.95;99802.16;457271;113;923045;-69
2022/02/01 00:56:40;;;;;;;1.96;1.56;;;;;;;2.18;64.96;99801.79;457485;114;922651;-70
2022/02/01 00:57:43;;;;;;;1.91;1.46;;;;;;;2.21;64.83;99810.33;458693;114;922571;-70
2022/02/01 00:58:46;;;;;;;1.99;1.50;;;;;;;2.23;64.78;99808.30;458143;114;922686;-69
2022/02/01 00:59:49;;;;;;;2.04;1.56;;;;;;;2.25;64.69;99811.66;455722;113;922677;-69
2022/02/01 01:00:52;;;;;;;2.77;1.54;;;;;;;2.28;64.65;99811.28;455706;113;922804;-70
2022/02/01 01:01:55;;;;;;;2.37;1.72;;;;;;;2.29;64.57;99812.96;456516;114;922535;-69
2022/02/01 01:02:59;;;;;;;2.44;1.74;;;;;;;2.31;64.39;99815.48;456855;113;930454;-69
2022/02/01 01:04:03;;;;;;;2.00;1.82;;;;;;;2.29;64.34;99812.96;457789;113;930535;-71
2022/02/01 01:05:07;;;;;;;2.05;1.71;;;;;;;2.29;64.38;99820.19;458005;114;930447;-69
2022/02/01 01:06:11;;;;;;;2.43;2.23;;;;;;;2.28;64.25;99818.52;457672;114;930514;-69
2022/02/01 01:07:14;;;;;;;2.30;2.00;;;;;;;2.27;64.22;99819.52;457522;113;930366;-70
2022/02/01 01:08:17;;;;;;;2.83;2.26;;;;;;;2.25;64.10;99816.20;457336;113;922801;-70
2022/02/01 01:09:20;;;;;;;3.08;2.06;;;;;;;2.26;64.07;99817.87;457750;114;922669;-69
2022/02/01 01:10:23;;;;;;;2.98;2.21;;;;;;;2.25;64.07;99822.42;458078;114;922659;-70
2022/02/01 01:11:26;;;;;;;2.83;2.24;;;;;;;2.26;64.00;99817.87;458377;113;922749;-69
2022/02/01 01:12:32;;;;;;;2.97;2.02;;;;;;;2.25;63.92;99814.34;458779;113;922765;-69
2022/02/01 01:15:18;;;;;;;3.19;1.67;;;;;;;2.27;63.76;99820.36;457835;113;922638;-69
2022/02/01 01:18:05;;;;;;;1.98;1.61;;;;;;;2.27;63.67;99828.44;457696;114;922556;-69
2022/02/01 01:43:39;;;;;;;4.47;3.44;;;;;;;2.17;63.75;99853.89;459220;114;922576;-70
2022/02/01 01:44:46;;;;;;;3.08;2.83;;;;;;;2.18;63.76;99855.58;456920;113;922435;-69
2022/02/01 01:53:09;;;;;;;4.71;4.18;;;;;;;2.13;63.70;99869.56;457309;114;922896;-69
2022/02/01 01:53:51;;;;;;;5.15;4.19;;;;;;;2.12;63.75;99875.11;456885;113;922673;-70
2022/02/01 01:54:54;;;;;;;4.29;3.89;;;;;;;2.10;63.68;99862.67;458561;114;922569;-70
2022/02/01 01:55:57;;;;;;;5.30;4.77;;;;;;;2.10;63.71;99872.59;458051;114;922867;-69
2022/02/01 01:57:00;;;;;;;5.18;4.46;;;;;;;2.10;63.73;99868.05;458145;113;922597;-69
2022/02/01 01:58:05;;;;;;;4.49;3.84;;;;;;;2.12;63.76;99864.34;458133;113;922521;-69
2022/02/01 01:59:09;;;;;;;6.69;4.09;;;;;;;2.14;63.70;99867.71;457812;114;922612;-69
2022/02/01 02:01:32;;;;;;;4.31;3.52;;;;;;;2.17;63.65;99870.03;436500;119;922821;-68
2022/02/01 02:02:42;;;;;;;3.61;2.91;;;;;;;2.28;63.62;99875.84;470008;109;946805;-67
2022/02/01 02:03:48;;;;;;;4.32;3.42;;;;;;;2.18;63.60;99871.70;465356;111;922524;-67
2022/02/01 02:04:50;;;;;;;4.04;3.71;;;;;;;2.18;63.57;99867.17;467812;112;922674;-69
2022/02/01 02:05:54;;;;;;;4.79;3.63;;;;;;;2.17;63.43;99872.72;468649;111;922762;-69
2022/02/01 02:06:56;;;;;;;4.45;3.28;;;;;;;2.14;63.39;99862.33;468895;112;922589;-66
2022/02/01 02:07:59;;;;;;;3.43;3.17;;;;;;;2.10;63.47;99877.97;467702;111;922857;-67
2022/02/01 02:09:06;;;;;;;3.44;3.14;;;;;;;2.07;63.49;99870.27;468591;112;923136;-68
2022/02/01 02:10:09;;;;;;;3.81;3.43;;;;;;;2.04;63.52;99886.77;466419;112;923152;-68
2022/02/01 02:11:25;;;;;;;3.24;2.67;;;;;;;2.00;63.50;99883.58;468662;112;923675;-67
2022/02/01 02:12:51;;;;;;;3.53;3.19;;;;;;;1.97;63.61;99883.11;468078;112;922533;-67
2022/02/01 02:15:00;;;;;;;3.82;3.48;;;;;;;1.92;63.77;99897.08;468996;111;923001;-69
2022/02/01 02:16:05;;;;;;;3.52;2.94;;;;;;;1.89;63.71;99886.66;468751;112;922572;-67
2022/02/01 02:17:08;;;;;;;6.16;3.14;;;;;;;1.85;63.73;99893.41;458455;114;922689;-68
2022/02/01 02:18:11;;;;;;;3.89;3.24;;;;;;;1.83;63.69;99894.58;468379;112;930634;-68
2022/02/01 02:19:14;;;;;;;3.72;3.13;;;;;;;1.79;63.72;99893.27;468213;112;923266;-69
2022/02/01 02:20:20;;;;;;;3.52;3.20;;;;;;;1.73;63.77;99904.72;468259;112;922888;-69
2022/02/01 02:21:24;;;;;;;4.72;3.18;;;;;;;1.68;63.85;99900.71;469486;112;922690;-69
2022/02/01 02:22:27;;;;;;;4.01;3.01;;;;;;;1.65;63.91;99902.92;468743;112;922635;-69
2022/02/01 02:23:30;;;;;;;3.34;3.00;;;;;;;1.62;63.90;99901.41;468517;112;922505;-68
2022/02/01 02:24:38;;;;;;;5.22;2.79;;;;;;;1.59;63.95;99901.77;469461;112;922594;-69
2022/02/01 02:25:41;;;;;;;3.51;3.14;;;;;;;1.56;64.07;99901.25;467281;112;922626;-68
2022/02/01 02:26:44;;;;;;;4.22;3.24;;;;;;;1.54;64.14;99905.98;468257;112;922591;-68
2022/02/01 02:27:47;;;;;;;3.67;3.35;;;;;;;1.52;64.17;99911.52;467655;112;922766;-68
2022/02/01 02:28:50;;;;;;;3.62;2.99;;;;;;;1.49;64.18;99917.22;468560;112;930541;-66
2022/02/01 02:29:53;;;;;;;3.59;2.98;;;;;;;1.47;64.23;99916.58;467623;112;922512;-67
2022/02/01 02:30:56;;;;;;;4.46;2.56;;;;;;;1.45;64.24;99923.12;468581;112;922504;-68
2022/02/01 02:32:02;;;;;;;4.04;3.27;;;;;;;1.44;64.36;99911.53;468329;112;922659;-67
2022/02/01 02:33:09;;;;;;;4.45;3.27;;;;;;;1.43;64.47;99915.25;468217;112;922819;-68
2022/02/01 02:34:14;;;;;;;4.56;3.67;;;;;;;1.44;64.52;99924.13;467131;112;922685;-68
2022/02/01 02:35:17;;;;;;;4.34;3.77;;;;;;;1.46;64.55;99919.42;468193;111;922625;-68
2022/02/01 02:36:21;;;;;;;5.53;4.50;;;;;;;1.48;64.51;99917.42;469786;112;922591;-67
2022/02/01 02:37:30;;;;;;;5.02;4.22;;;;;;;1.49;64.49;99922.59;469899;112;930670;-69
2022/02/01 02:40:00;;;;;;;5.53;4.22;;;;;;;1.58;64.48;99907.30;496517;104;946856;-68
2022/02/01 02:42:16;;;;;;;5.31;4.12;;;;;;;1.49;64.53;99913.72;486596;108;922506;-68
2022/02/01 02:46:03;;;;;;;5.31;3.01;;;;;;;1.53;64.64;99905.14;486775;107;922527;-68
2022/02/01 02:47:08;;;;;;;3.86;3.36;;;;;;;1.55;64.64;99897.73;486296;106;922500;-68
2022/02/01 02:48:12;;;;;;;4.14;3.64;;;;;;;1.57;64.65;99900.25;485707;106;922602;-68
2022/02/01 02:49:18;;;;;;;5.65;3.36;;;;;;;1.59;64.61;99914.36;486153;106;922663;-68
2022/02/01 02:50:23;;;;;;;3.21;2.83;;;;;;;1.60;64.56;99908.78;485861;107;922505;-69
2022/02/01 02:51:26;;;;;;;3.75;2.93;;;;;;;1.62;64.49;99911.31;485793;106;922969;-68
2022/02/01 02:52:29;;;;;;;3.67;2.91;;;;;;;1.61;64.37;99920.38;485532;106;922529;-67
2022/02/01 02:53:32;;;;;;;3.01;2.67;;;;;;;1.59;64.34;99930.48;485283;107;922543;-66
2022/02/01 02:54:35;;;;;;;3.84;3.19;;;;;;;1.58;64.39;99921.58;486218;107;922610;-69
2022/02/01 02:55:38;;;;;;;2.99;2.42;;;;;;;1.57;64.42;99927.11;485239;107;923324;-69
2022/02/01 02:56:46;;;;;;;3.20;2.51;;;;;;;1.57;64.46;99929.80;485982;106;922751;-68
2022/02/01 02:57:50;;;;;;;3.34;2.87;;;;;;;1.56;64.44;99922.75;485543;106;922800;-69
2022/02/01 02:58:53;;;;;;;4.41;3.01;;;;;;;1.55;64.50;99929.97;485493;107;922559;-69
2022/02/01 02:59:56;;;;;;;4.43;2.74;;;;;;;1.54;64.49;99928.31;486010;107;922994;-68
2022/02/01 03:00:59;;;;;;;3.05;2.47;;;;;;;1.54;64.42;99922.10;486374;106;922728;-69
2022/02/01 03:02:03;;;;;;;4.44;3.08;;;;;;;1.53;64.41;99923.11;486636;106;922993;-68
2022/02/01 03:03:06;;;;;;;3.57;2.84;;;;;;;1.52;64.40;99929.48;486965;107;922534;-67
2022/02/01 03:04:09;;;;;;;3.40;2.58;;;;;;;1.50;64.45;99944.92;486028;106;930768;-68
2022/02/01 03:05:12;;;;;;;3.87;3.21;;;;;;;1.50;64.48;99942.23;486431;106;922538;-67
2022/02/01 03:06:17;;;;;;;4.62;3.80;;;;;;;1.46;64.49;99941.75;486115;108;922506;-69
2022/02/01 03:07:20;;;;;;;5.67;3.95;;;;;;;1.45;64.51;99942.76;487076;107;930521;-69
2022/02/01 03:08:24;;;;;;;4.17;3.40;;;;;;;1.45;64.61;99942.76;485587;106;922605;-67
2022/02/01 03:09:27;;;;;;;4.14;3.53;;;;;;;1.45;64.64;99936.55;486348;106;923014;-70
2022/02/01 03:10:30;;;;;;;4.22;3.72;;;;;;;1.46;64.68;99940.91;486366;106;928894;-68
2022/02/01 03:11:33;;;;;;;4.32;3.64;;;;;;;1.46;64.73;99948.97;486482;108;922481;-69
2022/02/01 03:13:05;;;;;;;4.44;3.51;;;;;;;1.46;64.76;99941.75;485447;106;922630;-69
2022/02/01 03:13:47;;;;;;;3.98;3.27;;;;;;;1.46;64.71;99939.07;483239;106;922802;-69
2022/02/01 03:14:54;;;;;;;3.52;2.95;;;;;;;1.46;64.52;99944.44;485711;107;922702;-70
2022/02/01 03:15:59;;;;;;;3.23;2.92;;;;;;;1.46;64.68;99948.97;485008;107;922534;-67
2022/02/01 03:17:15;;;;;;;3.69;3.15;;;;;;;1.44;64.75;99959.88;484246;106;922715;-68
2022/02/01 03:20:49;;;;;;;4.02;3.62;;;;;;;1.39;64.73;99958.72;485781;107;923022;-69
2022/02/01 03:21:52;;;;;;;4.09;3.36;;;;;;;1.37;64.87;99961.59;485523;106;922588;-68
2022/02/01 03:22:55;;;;;;;3.69;3.17;;;;;;;1.38;64.88;99959.75;485343;106;922544;-68
2022/02/01 03:23:58;;;;;;;4.21;3.11;;;;;;;1.37;64.84;99956.22;486265;106;922674;-69
2022/02/01 03:25:02;;;;;;;4.48;3.24;;;;;;;1.37;64.84;99956.22;485547;106;922539;-68
2022/02/01 03:26:05;;;;;;;3.19;2.77;;;;;;;1.36;64.89;99957.23;486146;106;922542;-69
2022/02/01 03:27:08;;;;;;;5.05;3.30;;;;;;;1.37;64.91;99964.28;487712;106;922415;-68
2022/02/01 03:28:11;;;;;;;3.27;2.96;;;;;;;1.37;64.90;99966.12;486609;108;922790;-69
2022/02/01 03:29:14;;;;;;;6.74;3.21;;;;;;;1.37;64.92;99968.81;486616;106;923409;-68
2022/02/01 03:30:17;;;;;;;4.21;2.54;;;;;;;1.37;64.81;99966.12;486204;106;922813;-67
2022/02/01 03:31:20;;;;;;;3.61;2.89;;;;;;;1.35;64.78;99966.30;487148;106;930454;-69
2022/02/01 03:32:25;;;;;;;3.84;3.09;;;;;;;1.34;64.72;99966.45;486119;106;923285;-68
2022/02/01 03:33:27;;;;;;;4.49;2.69;;;;;;;1.33;64.57;99964.77;486142;106;930568;-68
2022/02/01 03:34:30;;;;;;;4.59;3.12;;;;;;;1.32;64.64;99971.17;485823;106;923112;-69
2022/02/01 03:35:33;;;;;;;4.57;3.08;;;;;;;1.31;64.65;99974.86;486500;107;922667;-69
2022/02/01 03:36:36;;;;;;;4.73;3.55;;;;;;;1.30;64.74;99970.50;475796;109;922615;-68
2022/02/01 03:37:39;;;;;;;3.92;2.83;;;;;;;1.31;64.73;99972.17;486393;106;922873;-69
2022/02/01 03:38:42;;;;;;;4.10;3.22;;;;;;;1.31;64.74;99973.02;486273;106;922582;-69
2022/02/01 03:39:45;;;;;;;5.84;3.18;;;;;;;1.33;64.75;99964.77;486415;107;922641;-70
2022/02/01 03:40:48;;;;;;;3.87;3.07;;;;;;;1.35;64.72;99968.13;485928;108;923218;-69
2022/02/01 03:41:52;;;;;;;3.86;2.95;;;;;;;1.37;64.72;99968.81;484707;106;923112;-69
2022/02/01 03:42:55;;;;;;;3.36;2.78;;;;;;;1.36;64.70;99959.91;485922;107;922693;-69
2022/02/01 03:44:00;;;;;;;3.61;2.79;;;;;;;1.39;64.71;99969.46;485539;107;922674;-68
2022/02/01 03:45:04;;;;;;;4.75;3.77;;;;;;;1.42;64.79;99966.45;485223;107;923212;-68
2022/02/01 03:46:08;;;;;;;4.83;3.95;;;;;;;1.45;64.47;99974.16;486109;106;922535;-69
2022/02/01 03:47:11;;;;;;;3.83;3.24;;;;;;;1.45;64.27;99975.00;485452;107;922629;-70
2022/02/01 03:48:14;;;;;;;6.11;3.41;;;;;;;1.44;64.30;99977.84;485949;108;922526;-70
2022/02/01 03:49:17;;;;;;;5.31;3.74;;;;;;;1.43;64.23;99986.94;485489;108;922764;-68
2022/02/01 03:50:20;;;;;;;3.96;3.46;;;;;;;1.42;64.27;99990.62;484754;106;922967;-68
2022/02/01 03:51:23;;;;;;;4.08;3.09;;;;;;;1.43;64.24;100000.37;486238;106;923040;-68
2022/02/01 03:52:26;;;;;;;4.69;3.67;;;;;;;1.43;64.19;100000.37;486099;108;922598;-68
2022/02/01 03:53:30;;;;;;;3.69;2.81;;;;;;;1.44;64.22;99996.64;486480;106;923024;-68
2022/02/01 03:54:34;;;;;;;3.73;3.37;;;;;;;1.46;64.17;99986.58;484915;107;922598;-69
2022/02/01 03:55:37;;;;;;;5.07;3.69;;;;;;;1.48;64.10;99998.00;486757;106;922527;-69
2022/02/01 03:56:40;;;;;;;4.05;2.91;;;;;;;1.48;64.06;99998.00;486665;108;922542;-68
2022/02/01 03:57:43;;;;;;;4.62;3.12;;;;;;;1.48;63.94;99998.84;486412;108;922914;-68
2022/02/01 03:58:46;;;;;;;3.82;3.36;;;;;;;1.46;63.94;100000.02;475165;109;922689;-69
2022/02/01 03:59:49;;;;;;;3.84;2.89;;;;;;;1.47;64.04;100004.38;475792;108;922700;-67
2022/02/01 04:00:52;;;;;;;3.64;3.01;;;;;;;1.47;64.02;99999.01;486648;107;922537;-68
2022/02/01 04:01:58;;;;;;;4.17;3.03;;;;;;;1.49;64.03;100005.87;486383;107;922905;-68
2022/02/01 04:03:04;;;;;;;4.28;3.05;;;;;;;1.48;64.04;100006.91;486102;107;923040;-70
2022/02/01 04:04:07;;;;;;;4.72;3.41;;;;;;;1.50;64.04;100010.23;486352;106;922839;-70
2022/02/01 04:05:10;;;;;;;3.96;3.34;;;;;;;1.52;63.98;100013.61;486391;108;922687;-68
2022/02/01 04:06:14;;;;;;;4.51;3.48;;;;;;;1.54;63.99;100000.02;485828;107;922592;-70
2022/02/01 04:07:18;;;;;;;4.90;3.87;;;;;;;1.56;64.03;100006.87;485410;106;923022;-70
2022/02/01 04:08:23;;;;;;;4.91;3.21;;;;;;;1.58;63.94;100009.40;482398;108;922881;-69
2022/02/01 04:09:27;;;;;;;3.67;2.99;;;;;;;1.59;63.85;100019.14;482361;106;922695;-68
2022/02/01 04:10:31;;;;;;;3.74;2.88;;;;;;;1.59;63.83;100013.77;485626;106;922615;-70
2022/02/01 04:11:35;;;;;;;4.82;3.08;;;;;;;1.58;63.76;100012.93;485720;106;930572;-69
2022/02/01 04:12:40;;;;;;;6.12;3.37;;;;;;;1.60;63.74;100021.63;485569;108;922913;-67
2022/02/01 04:13:42;;;;;;;6.21;4.02;;;;;;;1.62;63.74;100011.56;485553;106;922889;-71
2022/02/01 04:14:46;;;;;;;6.65;3.89;;;;;;;1.64;63.70;100017.63;485327;106;922924;-67
2022/02/01 04:15:50;;;;;;;5.57;3.89;;;;;;;1.68;63.63;100028.85;485876;108;922569;-67
2022/02/01 04:16:54;;;;;;;5.21;3.74;;;;;;;1.68;63.61;100021.63;486558;108;923252;-69
2022/02/01 04:17:57;;;;;;;4.66;3.39;;;;;;;1.70;63.55;100026.84;486442;106;922656;-69
2022/02/01 04:19:03;;;;;;;4.49;3.12;;;;;;;1.72;63.49;100022.12;486632;106;922455;-68
2022/02/01 04:20:06;;;;;;;3.76;2.92;;;;;;;1.73;63.43;100026.48;486645;106;922944;-67
2022/02/01 04:21:10;;;;;;;6.03;3.25;;;;;;;1.75;63.41;100029.85;486636;108;922604;-69
2022/02/01 04:22:15;;;;;;;5.04;3.03;;;;;;;1.77;63.36;100038.56;485545;106;922465;-69
2022/02/01 04:23:18;;;;;;;5.39;3.27;;;;;;;1.80;63.38;100029.33;485923;107;922461;-69
2022/02/01 04:24:21;;;;;;;5.26;3.99;;;;;;;1.81;63.29;100031.86;486403;106;923311;-70
2022/02/01 04:25:25;;;;;;;4.10;3.29;;;;;;;1.83;63.23;100031.66;486463;107;922641;-69
2022/02/01 04:26:28;;;;;;;5.90;3.58;;;;;;;1.83;63.18;100031.66;485905;107;923098;-68
2022/02/01 04:27:31;;;;;;;4.66;3.17;;;;;;;1.87;63.23;100035.70;485844;106;922877;-70
2022/02/01 04:28:35;;;;;;;6.11;3.42;;;;;;;1.88;63.22;100035.52;485140;107;922476;-66
2022/02/01 04:29:42;;;;;;;5.33;3.26;;;;;;;1.91;63.21;100031.66;486138;107;922544;-70
2022/02/01 04:30:43;;;;;;;3.72;2.69;;;;;;;1.92;63.09;100036.87;485653;106;922508;-69
2022/02/01 04:31:46;;;;;;;4.34;3.18;;;;;;;1.93;63.02;100035.02;486054;106;923029;-68
2022/02/01 04:32:52;;;;;;;5.39;3.50;;;;;;;1.94;63.01;100033.98;486047;106;923126;-69
2022/02/01 04:33:55;;;;;;;4.83;3.44;;;;;;;1.95;62.97;100032.98;485977;108;930586;-68
2022/02/01 04:34:59;;;;;;;5.59;3.74;;;;;;;1.95;62.87;100033.82;485631;106;922708;-68
2022/02/01 04:36:02;;;;;;;6.24;3.50;;;;;;;1.94;62.82;100040.20;485356;106;922594;-69
2022/02/01 04:37:05;;;;;;;5.36;3.37;;;;;;;1.92;62.82;100042.25;485061;107;922741;-68
2022/02/01 04:38:08;;;;;;;4.78;3.34;;;;;;;1.92;62.78;100041.41;485745;107;922539;-68
2022/02/01 04:39:12;;;;;;;6.69;4.02;;;;;;;1.91;62.79;100040.56;485360;108;922852;-67
2022/02/01 04:40:17;;;;;;;4.87;3.27;;;;;;;1.92;62.80;100041.41;485999;106;922595;-69
2022/02/01 04:41:20;;;;;;;4.73;3.61;;;;;;;1.93;62.82;100037.71;486883;108;930503;-69
2022/02/01 04:42:25;;;;;;;5.46;3.99;;;;;;;1.95;62.78;100047.27;485867;107;922530;-69
2022/02/01 04:43:28;;;;;;;4.83;3.76;;;;;;;1.96;62.78;100037.34;486088;107;923115;-68
2022/02/01 04:44:31;;;;;;;4.24;3.19;;;;;;;1.97;62.81;100039.88;486288;106;922567;-69
2022/02/01 04:45:35;;;;;;;5.83;3.27;;;;;;;1.98;62.68;100038.03;487109;107;923123;-68
2022/02/01 04:46:38;;;;;;;4.59;3.29;;;;;;;1.96;62.65;100048.95;486841;107;922522;-68
2022/02/01 04:47:41;;;;;;;3.67;3.24;;;;;;;1.95;62.68;100047.27;486463;106;922882;-67
2022/02/01 04:48:45;;;;;;;5.05;3.64;;;;;;;1.95;62.75;100049.95;485854;107;922608;-67
2022/02/01 04:49:48;;;;;;;5.20;4.12;;;;;;;1.95;62.73;100047.27;486491;108;922554;-67
2022/02/01 04:50:51;;;;;;;5.56;4.25;;;;;;;1.97;62.76;100047.94;485834;107;930466;-68
2022/02/01 04:51:54;;;;;;;6.54;4.58;;;;;;;1.99;62.75;100051.27;485885;106;923117;-70
2022/02/01 04:52:58;;;;;;;8.56;6.76;;;;;;;2.02;62.79;100053.64;485205;107;930654;-66
2022/02/01 04:54:01;;;;;;;8.06;6.16;;;;;;;2.04;62.65;100053.47;486089;108;922705;-67
2022/02/01 04:55:05;;;;;;;6.47;5.28;;;;;;;2.05;62.61;100058.66;485581;107;922817;-68
2022/02/01 04:56:08;;;;;;;6.25;5.24;;;;;;;2.06;62.64;100054.95;485969;106;922466;-69
2022/02/01 04:57:11;;;;;;;6.52;5.00;;;;;;;2.06;62.59;100052.27;486137;107;922978;-68
2022/02/01 04:58:14;;;;;;;6.17;4.69;;;;;;;2.06;62.50;100060.34;486263;108;922743;-69
2022/02/01 04:59:17;;;;;;;5.25;4.67;;;;;;;2.06;62.51;100054.11;484897;107;922747;-68
2022/02/01 05:00:26;;;;;;;8.96;4.20;;;;;;;2.04;62.42;100051.59;485437;106;922535;-69
2022/02/01 05:02:40;;;;;;;5.54;3.78;;;;;;;2.14;62.43;100056.80;470449;110;947098;-68
2022/02/01 05:03:43;;;;;;;4.81;3.98;;;;;;;2.01;62.42;100064.55;459428;113;923197;-69
2022/02/01 05:04:46;;;;;;;6.91;4.68;;;;;;;2.01;62.41;100062.70;450307;115;923686;-68
2022/02/01 05:05:50;;;;;;;4.92;3.49;;;;;;;2.02;62.59;100067.08;450630;116;923016;-68
2022/02/01 05:06:54;;;;;;;5.45;4.49;;;;;;;2.04;62.63;100062.34;451348;116;922981;-68
2022/02/01 05:08:04;;;;;;;4.85;4.39;;;;;;;2.06;62.54;100067.56;451246;115;922485;-67
2022/02/01 05:09:09;;;;;;;8.02;4.71;;;;;;;2.05;62.48;100065.88;450614;116;923745;-68
2022/02/01 05:10:13;;;;;;;5.32;4.26;;;;;;;2.03;62.46;100055.31;450744;116;922664;-69
2022/02/01 05:11:16;;;;;;;5.44;4.21;;;;;;;2.03;62.42;100065.23;451415;115;922762;-69
2022/02/01 05:12:19;;;;;;;5.61;4.26;;;;;;;2.01;62.43;100060.02;450744;115;923339;-68
2022/02/01 05:14:36;;;;;;;7.28;4.78;;;;;;;2.01;62.52;100068.08;452004;116;922522;-67
2022/02/01 05:15:40;;;;;;;5.77;4.79;;;;;;;2.02;62.48;100061.70;451795;116;922973;-68
2022/02/01 05:17:58;;;;;;;5.93;5.17;;;;;;;2.03;62.54;100063.38;453214;116;922621;-67
2022/02/01 05:19:04;;;;;;;5.03;4.18;;;;;;;2.04;62.44;100065.03;452190;116;922523;-68
2022/02/01 05:20:24;;;;;;;6.41;4.98;;;;;;;2.04;62.47;100061.53;452513;115;922702;-68
2022/02/01 05:22:32;;;;;;;6.73;5.28;;;;;;;2.19;62.42;100069.71;471069;110;1195245;-69
2022/02/01 05:23:35;;;;;;;7.65;5.28;;;;;;;2.09;62.39;100077.98;466617;111;922787;-67
2022/02/01 05:24:39;;;;;;;5.91;5.07;;;;;;;2.09;62.35;100073.42;461437;113;922583;-67
2022/02/01 05:25:43;;;;;;;5.79;4.90;;;;;;;2.12;62.41;100080.32;462693;113;922609;-69
2022/02/01 05:26:47;;;;;;;5.49;4.67;;;;;;;2.12;62.38;100069.56;461763;113;922722;-69
2022/02/01 05:27:50;;;;;;;5.58;5.03;;;;;;;2.16;62.37;100080.80;461814;112;922697;-68
2022/02/01 05:28:54;;;;;;;6.16;5.39;;;;;;;2.16;62.35;100080.80;462326;112;930564;-69
2022/02/01 05:29:57;;;;;;;6.88;5.66;;;;;;;2.16;62.36;100075.42;461481;113;922629;-67
2022/02/01 05:31:02;;;;;;;6.41;5.42;;;;;;;2.16;62.31;100083.48;462458;112;922480;-67
2022/02/01 05:33:21;;;;;;;5.26;4.29;;;;;;;2.27;62.39;100088.50;472664;110;947252;-68
2022/02/01 05:34:24;;;;;;;7.05;5.01;;;;;;;2.14;62.32;100086.38;461098;112;922554;-69
2022/02/01 05:35:29;;;;;;;6.68;5.00;;;;;;;2.13;62.30;100083.84;459948;115;922541;-69
2022/02/01 05:36:32;;;;;;;8.75;5.76;;;;;;;2.15;62.23;100089.91;441367;118;922925;-67
2022/02/01 05:37:35;;;;;;;6.41;4.70;;;;;;;2.13;62.22;100091.92;459051;113;922527;-68
2022/02/01 05:38:38;;;;;;;6.21;4.85;;;;;;;2.14;62.20;100090.91;459557;114;922643;-68
2022/02/01 05:39:41;;;;;;;6.79;4.50;;;;;;;2.14;62.18;100089.06;459608;114;922947;-68
2022/02/01 05:40:45;;;;;;;12.36;4.67;;;;;;;2.15;62.24;100095.28;458946;114;922784;-69
2022/02/01 05:41:50;;;;;;;5.63;4.25;;;;;;;2.15;62.15;100098.78;458280;113;922608;-71
2022/02/01 05:44:02;;;;;;;6.02;4.67;;;;;;;2.14;62.12;100101.67;458919;113;922547;-68
2022/02/01 05:45:06;;;;;;;5.56;4.39;;;;;;;2.15;62.12;100101.47;459011;115;922931;-69
2022/02/01 05:46:10;;;;;;;7.05;4.58;;;;;;;2.17;62.15;100098.62;457267;113;922635;-67
2022/02/01 05:47:15;;;;;;;5.16;4.50;;;;;;;2.20;62.13;100103.67;458920;114;922704;-67
2022/02/01 05:48:19;;;;;;;6.61;4.46;;;;;;;2.22;62.00;100107.84;458378;115;930716;-67
2022/02/01 05:49:22;;;;;;;7.68;4.97;;;;;;;2.22;61.92;100101.63;458001;114;923004;-69
2022/02/01 05:50:25;;;;;;;5.38;4.08;;;;;;;2.22;61.89;100115.08;458539;114;922713;-68
2022/02/01 05:51:29;;;;;;;6.59;5.26;;;;;;;2.23;61.84;100114.07;449734;117;922946;-69
2022/02/01 05:52:32;;;;;;;7.47;5.16;;;;;;;2.21;61.76;100116.92;448931;115;922711;-70
2022/02/01 05:53:35;;;;;;;5.59;4.46;;;;;;;2.23;61.76;100116.77;459401;114;922485;-71
2022/02/01 05:54:39;;;;;;;5.62;4.34;;;;;;;2.23;61.85;100116.77;451229;116;922755;-68
2022/02/01 05:55:42;;;;;;;5.04;4.40;;;;;;;2.24;61.80;100115.75;451271;115;923208;-68
2022/02/01 05:56:45;;;;;;;5.63;4.15;;;;;;;2.24;61.76;100121.97;459018;114;922510;-70
2022/02/01 05:57:49;;;;;;;5.80;4.81;;;;;;;2.25;61.79;100120.97;443675;117;926584;-71
2022/02/01 05:58:52;;;;;;;6.84;4.92;;;;;;;2.29;61.80;100118.77;458732;115;922521;-72
2022/02/01 05:59:55;;;;;;;5.07;4.09;;;;;;;2.32;61.75;100127.31;459151;115;922625;-67
2022/02/01 06:00:58;;;;;;;7.09;5.09;;;;;;;2.33;61.71;100115.55;459960;114;922859;-69
2022/02/01 06:02:02;;;;;;;4.77;4.03;;;;;;;2.35;61.61;100118.08;459009;114;923557;-70
2022/02/01 06:03:05;;;;;;;7.28;4.59;;;;;;;2.36;61.60;100119.76;459035;114;930522;-66
2022/02/01 06:04:08;;;;;;;6.46;4.26;;;;;;;2.36;61.52;100130.52;449787;117;923043;-68
2022/02/01 06:05:12;;;;;;;5.14;4.37;;;;;;;2.35;61.43;100126.14;450501;115;930615;-69
2022/02/01 06:06:16;;;;;;;7.20;4.56;;;;;;;2.35;61.44;100124.30;458102;114;922585;-69
2022/02/01 06:07:19;;;;;;;6.28;4.33;;;;;;;2.35;61.37;100126.14;464378;113;922696;-67
2022/02/01 06:08:22;;;;;;;6.12;4.32;;;;;;;2.35;61.42;100128.84;464520;113;923021;-68
2022/02/01 06:09:25;;;;;;;5.54;4.69;;;;;;;2.35;61.37;100128.84;458441;115;922549;-72
2022/02/01 06:10:29;;;;;;;5.44;3.74;;;;;;;2.35;61.44;100128.84;459038;115;922671;-71
2022/02/01 06:11:33;;;;;;;4.95;4.10;;;;;;;2.35;61.51;100131.52;458806;115;923079;-67
2022/02/01 06:12:44;;;;;;;5.71;3.98;;;;;;;2.37;61.56;100132.20;458782;113;922595;-69
2022/02/01 06:13:47;;;;;;;5.44;4.23;;;;;;;2.38;61.49;100126.62;458570;113;922775;-67
2022/02/01 06:14:51;;;;;;;5.59;3.77;;;;;;;2.39;61.50;100135.54;459336;115;922788;-70
2022/02/01 06:15:54;;;;;;;4.67;3.61;;;;;;;2.39;61.50;100139.07;458444;114;922649;-69
2022/02/01 06:16:57;;;;;;;5.97;3.84;;;;;;;2.38;61.39;100140.08;459171;113;922628;-66